KGAI/GAI METAR and TAF weather

Enter ICAO airport designator
Station Type Date Time Source
KGAI METAR 2021/09/24 05:56 UTC NOAA

KGAI 240556Z AUTO 00000KT 10SM CLR 10/09 A3003 RMK AO2 SLP182 6//// T01000094 10161 20100 55001 PNO $


Station Type Date Time Source
KGAI Decoded METAR 2021/09/24 05:56 UTC NOAA

Station name not available
Sep 24, 2021 - 01:56 AM EDT / 2021.09.24 0556 UTC
Wind: Calm:0
Visibility: 10 mile(s):0
Sky conditions: clear
Temperature: 50.0 F (10.0 C)
Dew Point: 48.9 F (9.4 C)
Relative Humidity: 96%
Pressure (altimeter): 30.03 in. Hg (1016 hPa)
Pressure tendency: 0.00 inches (0.1 hPa) lower than three hours ago
ob: KGAI 240556Z AUTO 00000KT 10SM CLR 10/09 A3003 RMK AO2 SLP182 6//// T01000094 10161 20100 55001 PNO
cycle: 6

Station Type Date Time Source
KGAI TAF UTC NOAA

Error!

Example: see airport list